sensor_id;sensor_type;location;lat;lon;timestamp;pressure;altitude;pressure_sealevel;temperature;humidity
2875;BME280;1445;52.600;13.328;2023-05-10T00:01:01;100562.72;;;13.54;100.00
2875;BME280;1445;52.600;13.328;2023-05-10T00:03:26;100554.41;;;13.54;100.00
2875;BME280;1445;52.600;13.328;2023-05-10T00:05:51;100558.16;;;13.49;100.00
2875;BME280;1445;52.600;13.328;2023-05-10T00:08:17;100556.56;;;13.48;100.00
2875;BME280;1445;52.600;13.328;2023-05-10T00:10:42;100556.06;;;13.46;100.00
2875;BME280;1445;52.600;13.328;2023-05-10T00:13:08;100557.84;;;13.42;100.00
2875;BME280;1445;52.600;13.328;2023-05-10T00:15:33;100550.03;;;13.35;100.00
2875;BME280;1445;52.600;13.328;2023-05-10T00:17:59;100542.06;;;13.34;100.00
2875;BME280;1445;52.600;13.328;2023-05-10T00:20:25;100537.16;;;13.31;100.00
2875;BME280;1445;52.600;13.328;2023-05-10T00:22:50;100543.47;;;13.23;100.00
2875;BME280;1445;52.600;13.328;2023-05-10T00:25:16;100524.25;;;13.18;100.00
2875;BME280;1445;52.600;13.328;2023-05-10T00:27:41;100531.25;;;13.15;100.00
2875;BME280;1445;52.600;13.328;2023-05-10T00:30:07;100531.88;;;13.12;100.00
2875;BME280;1445;52.600;13.328;2023-05-10T00:32:33;100525.88;;;13.10;100.00
2875;BME280;1445;52.600;13.328;2023-05-10T00:34:58;100516.91;;;13.04;100.00
2875;BME280;1445;52.600;13.328;2023-05-10T00:37:24;100519.84;;;12.99;100.00
2875;BME280;1445;52.600;13.328;2023-05-10T00:39:50;100524.56;;;12.99;100.00
2875;BME280;1445;52.600;13.328;2023-05-10T00:42:15;100518.66;;;12.92;100.00
2875;BME280;1445;52.600;13.328;2023-05-10T00:44:40;100526.00;;;12.87;100.00
2875;BME280;1445;52.600;13.328;2023-05-10T00:47:06;100512.31;;;12.82;100.00
2875;BME280;1445;52.600;13.328;2023-05-10T00:49:32;100521.75;;;12.81;100.00
2875;BME280;1445;52.600;13.328;2023-05-10T00:51:58;100513.13;;;12.74;100.00
2875;BME280;1445;52.600;13.328;2023-05-10T00:54:23;100516.53;;;12.71;100.00
2875;BME280;1445;52.600;13.328;2023-05-10T00:56:49;100506.25;;;12.63;100.00
2875;BME280;1445;52.600;13.328;2023-05-10T00:59:18;100509.00;;;12.63;100.00
2875;BME280;1445;52.600;13.328;2023-05-10T01:01:44;100506.88;;;12.60;100.00
2875;BME280;1445;52.600;13.328;2023-05-10T01:04:12;100507.03;;;12.55;100.00
2875;BME280;1445;52.600;13.328;2023-05-10T01:06:42;100506.53;;;12.53;100.00
2875;BME280;1445;52.600;13.328;2023-05-10T01:09:07;100502.16;;;12.52;100.00
2875;BME280;1445;52.600;13.328;2023-05-10T01:11:37;100495.97;;;12.46;100.00
2875;BME280;1445;52.600;13.328;2023-05-10T01:14:04;100497.25;;;12.49;100.00
2875;BME280;1445;52.600;13.328;2023-05-10T01:16:33;100494.81;;;12.47;100.00
2875;BME280;1445;52.600;13.328;2023-05-10T01:18:59;100494.66;;;12.44;100.00
2875;BME280;1445;52.600;13.328;2023-05-10T01:21:33;100483.72;;;12.38;100.00
2875;BME280;1445;52.600;13.328;2023-05-10T01:32:51;100493.31;;;12.32;100.00
2875;BME280;1445;52.600;13.328;2023-05-10T01:35:32;100482.09;;;12.29;100.00
2875;BME280;1445;52.600;13.328;2023-05-10T01:41:05;100483.34;;;12.23;100.00
2875;BME280;1445;52.600;13.328;2023-05-10T01:43:28;100473.13;;;12.23;100.00
2875;BME280;1445;52.600;13.328;2023-05-10T01:46:02;100478.47;;;12.20;100.00
2875;BME280;1445;52.600;13.328;2023-05-10T01:48:37;100477.94;;;12.17;100.00
2875;BME280;1445;52.600;13.328;2023-05-10T01:51:04;100476.78;;;12.10;100.00
2875;BME280;1445;52.600;13.328;2023-05-10T01:53:32;100479.56;;;12.10;100.00
2875;BME280;1445;52.600;13.328;2023-05-10T01:56:00;100482.66;;;12.08;100.00
2875;BME280;1445;52.600;13.328;2023-05-10T01:58:31;100482.47;;;12.05;100.00
2875;BME280;1445;52.600;13.328;2023-05-10T02:00:59;100473.66;;;12.03;100.00
2875;BME280;1445;52.600;13.328;2023-05-10T02:03:27;100480.16;;;11.98;100.00
2875;BME280;1445;52.600;13.328;2023-05-10T02:05:54;100463.88;;;11.97;100.00
2875;BME280;1445;52.600;13.328;2023-05-10T02:08:22;100469.75;;;11.95;100.00
2875;BME280;1445;52.600;13.328;2023-05-10T02:10:49;100469.56;;;11.91;100.00
2875;BME280;1445;52.600;13.328;2023-05-10T02:13:17;100474.75;;;11.93;100.00
2875;BME280;1445;52.600;13.328;2023-05-10T02:15:43;100476.41;;;11.94;100.00
2875;BME280;1445;52.600;13.328;2023-05-10T02:18:13;100470.19;;;11.88;100.00
2875;BME280;1445;52.600;13.328;2023-05-10T02:20:39;100480.75;;;11.86;100.00
2875;BME280;1445;52.600;13.328;2023-05-10T02:23:05;100467.25;;;11.85;100.00
2875;BME280;1445;52.600;13.328;2023-05-10T02:25:31;100462.13;;;11.78;100.00
2875;BME280;1445;52.600;13.328;2023-05-10T02:28:00;100464.09;;;11.78;100.00
2875;BME280;1445;52.600;13.328;2023-05-10T02:30:27;100462.13;;;11.78;100.00
2875;BME280;1445;52.600;13.328;2023-05-10T02:32:54;100457.41;;;11.70;100.00
2875;BME280;1445;52.600;13.328;2023-05-10T02:35:21;100461.16;;;11.74;100.00
2875;BME280;1445;52.600;13.328;2023-05-10T02:37:47;100461.78;;;11.71;100.00
2875;BME280;1445;52.600;13.328;2023-05-10T02:40:15;100463.53;;;11.67;100.00
2875;BME280;1445;52.600;13.328;2023-05-10T02:42:42;100459.16;;;11.66;100.00
2875;BME280;1445;52.600;13.328;2023-05-10T02:45:12;100463.53;;;11.67;100.00
2875;BME280;1445;52.600;13.328;2023-05-10T02:47:38;100462.22;;;11.64;100.00
2875;BME280;1445;52.600;13.328;2023-05-10T02:50:04;100456.22;;;11.62;100.00
2875;BME280;1445;52.600;13.328;2023-05-10T02:52:46;100456.84;;;11.59;100.00
2875;BME280;1445;52.600;13.328;2023-05-10T02:55:14;100462.47;;;11.54;100.00
2875;BME280;1445;52.600;13.328;2023-05-10T02:57:48;100459.41;;;11.56;100.00
2875;BME280;1445;52.600;13.328;2023-05-10T03:00:16;100465.88;;;11.51;100.00
2875;BME280;1445;52.600;13.328;2023-05-10T03:02:41;100460.34;;;11.51;100.00
2875;BME280;1445;52.600;13.328;2023-05-10T03:05:07;100462.09;;;11.47;100.00
2875;BME280;1445;52.600;13.328;2023-05-10T03:07:33;100465.81;;;11.42;100.00
2875;BME280;1445;52.600;13.328;2023-05-10T03:09:59;100455.22;;;11.36;100.00
2875;BME280;1445;52.600;13.328;2023-05-10T03:15:19;100461.06;;;11.34;100.00
2875;BME280;1445;52.600;13.328;2023-05-10T03:23:13;100450.28;;;11.24;100.00
2875;BME280;1445;52.600;13.328;2023-05-10T03:25:46;100447.69;;;11.28;100.00
2875;BME280;1445;52.600;13.328;2023-05-10T03:28:14;100451.09;;;11.25;100.00
2875;BME280;1445;52.600;13.328;2023-05-10T03:30:41;100450.28;;;11.24;100.00
2875;BME280;1445;52.600;13.328;2023-05-10T03:33:08;100455.28;;;11.22;100.00
2875;BME280;1445;52.600;13.328;2023-05-10T03:35:33;100446.19;;;11.21;100.00
2875;BME280;1445;52.600;13.328;2023-05-10T03:37:59;100451.00;;;11.16;100.00
2875;BME280;1445;52.600;13.328;2023-05-10T03:40:26;100441.00;;;11.20;100.00
2875;BME280;1445;52.600;13.328;2023-05-10T03:42:54;100444.25;;;11.22;100.00
2875;BME280;1445;52.600;13.328;2023-05-10T03:45:19;100445.06;;;11.22;100.00
2875;BME280;1445;52.600;13.328;2023-05-10T03:47:45;100448.13;;;11.21;100.00
2875;BME280;1445;52.600;13.328;2023-05-10T03:50:10;100438.72;;;11.22;100.00
2875;BME280;1445;52.600;13.328;2023-05-10T03:52:35;100441.66;;;11.26;100.00
2875;BME280;1445;52.600;13.328;2023-05-10T03:55:01;100439.91;;;11.30;100.00
2875;BME280;1445;52.600;13.328;2023-05-10T03:57:28;100440.53;;;11.27;100.00
2875;BME280;1445;52.600;13.328;2023-05-10T03:59:54;100442.38;;;11.31;100.00
2875;BME280;1445;52.600;13.328;2023-05-10T04:02:19;100435.91;;;11.36;100.00
2875;BME280;1445;52.600;13.328;2023-05-10T04:04:45;100440.28;;;11.37;100.00
2875;BME280;1445;52.600;13.328;2023-05-10T04:07:10;100436.22;;;11.34;100.00
2875;BME280;1445;52.600;13.328;2023-05-10T04:09:35;100441.13;;;11.37;100.00
2875;BME280;1445;52.600;13.328;2023-05-10T04:12:01;100444.56;;;11.43;100.00
2875;BME280;1445;52.600;13.328;2023-05-10T04:14:27;100434.66;;;11.42;100.00
2875;BME280;1445;52.600;13.328;2023-05-10T04:16:53;100437.16;;;11.52;100.00
2875;BME280;1445;52.600;13.328;2023-05-10T04:19:18;100441.59;;;11.62;100.00
2875;BME280;1445;52.600;13.328;2023-05-10T04:21:44;100435.06;;;11.58;100.00
2875;BME280;1445;52.600;13.328;2023-05-10T04:24:09;100439.47;;;11.59;100.00
2875;BME280;1445;52.600;13.328;2023-05-10T04:26:34;100435.56;;;11.60;100.00
2875;BME280;1445;52.600;13.328;2023-05-10T04:29:00;100435.25;;;11.61;100.00
2875;BME280;1445;52.600;13.328;2023-05-10T04:31:25;100432.47;;;11.61;100.00
2875;BME280;1445;52.600;13.328;2023-05-10T04:33:52;100443.22;;;11.63;100.00
2875;BME280;1445;52.600;13.328;2023-05-10T04:36:18;100438.50;;;11.63;100.00
2875;BME280;1445;52.600;13.328;2023-05-10T04:38:43;100430.75;;;11.65;100.00
2875;BME280;1445;52.600;13.328;2023-05-10T04:41:10;100432.84;;;11.68;100.00
2875;BME280;1445;52.600;13.328;2023-05-10T04:43:37;100428.47;;;11.67;100.00
2875;BME280;1445;52.600;13.328;2023-05-10T04:46:03;100429.00;;;11.78;100.00
2875;BME280;1445;52.600;13.328;2023-05-10T04:48:29;100423.66;;;11.82;100.00
2875;BME280;1445;52.600;13.328;2023-05-10T04:50:54;100433.56;;;11.83;100.00
2875;BME280;1445;52.600;13.328;2023-05-10T04:53:20;100428.47;;;11.90;100.00
2875;BME280;1445;52.600;13.328;2023-05-10T04:55:46;100428.31;;;11.95;100.00
2875;BME280;1445;52.600;13.328;2023-05-10T04:58:12;100427.84;;;12.02;100.00
2875;BME280;1445;52.600;13.328;2023-05-10T05:00:37;100429.69;;;12.15;100.00
2875;BME280;1445;52.600;13.328;2023-05-10T05:03:03;100433.44;;;12.28;100.00
2875;BME280;1445;52.600;13.328;2023-05-10T05:05:28;100426.47;;;12.30;100.00
2875;BME280;1445;52.600;13.328;2023-05-10T05:07:54;100431.03;;;12.35;100.00
2875;BME280;1445;52.600;13.328;2023-05-10T05:10:19;100429.13;;;12.44;100.00
2875;BME280;1445;52.600;13.328;2023-05-10T05:12:45;100431.72;;;12.49;100.00
2875;BME280;1445;52.600;13.328;2023-05-10T05:15:10;100428.31;;;12.52;100.00
2875;BME280;1445;52.600;13.328;2023-05-10T05:17:36;100425.56;;;12.61;100.00
2875;BME280;1445;52.600;13.328;2023-05-10T05:20:02;100421.53;;;12.67;100.00
2875;BME280;1445;52.600;13.328;2023-05-10T05:22:28;100425.44;;;12.75;100.00
2875;BME280;1445;52.600;13.328;2023-05-10T05:24:54;100423.81;;;12.82;100.00
2875;BME280;1445;52.600;13.328;2023-05-10T05:27:20;100420.88;;;12.79;100.00
2875;BME280;1445;52.600;13.328;2023-05-10T05:29:53;100422.34;;;12.85;100.00
2875;BME280;1445;52.600;13.328;2023-05-10T05:32:18;100422.34;;;12.85;100.00
2875;BME280;1445;52.600;13.328;2023-05-10T05:34:45;100420.38;;;12.94;100.00
2875;BME280;1445;52.600;13.328;2023-05-10T05:37:14;100410.28;;;12.98;100.00
2875;BME280;1445;52.600;13.328;2023-05-10T05:39:40;100405.41;;;13.04;100.00
2875;BME280;1445;52.600;13.328;2023-05-10T05:42:05;100409.47;;;13.15;100.00
2875;BME280;1445;52.600;13.328;2023-05-10T05:44:30;100412.41;;;13.10;100.00
2875;BME280;1445;52.600;13.328;2023-05-10T05:46:56;100404.78;;;13.24;100.00
2875;BME280;1445;52.600;13.328;2023-05-10T05:49:21;100411.78;;;13.30;100.00
2875;BME280;1445;52.600;13.328;2023-05-10T05:51:47;100409.47;;;13.41;100.00
2875;BME280;1445;52.600;13.328;2023-05-10T05:54:14;100410.25;;;13.50;100.00
2875;BME280;1445;52.600;13.328;2023-05-10T05:56:40;100407.78;;;13.66;100.00
2875;BME280;1445;52.600;13.328;2023-05-10T05:59:05;100408.09;;;13.73;100.00
2875;BME280;1445;52.600;13.328;2023-05-10T06:01:31;100407.41;;;13.76;100.00
2875;BME280;1445;52.600;13.328;2023-05-10T06:03:56;100411.63;;;13.82;100.00
2875;BME280;1445;52.600;13.328;2023-05-10T06:06:22;100415.84;;;13.89;100.00
2875;BME280;1445;52.600;13.328;2023-05-10T06:08:47;100400.00;;;13.98;100.00
2875;BME280;1445;52.600;13.328;2023-05-10T06:11:13;100410.88;;;14.03;100.00
2875;BME280;1445;52.600;13.328;2023-05-10T06:13:38;100414.59;;;14.16;100.00
2875;BME280;1445;52.600;13.328;2023-05-10T06:16:04;100407.22;;;14.20;100.00
2875;BME280;1445;52.600;13.328;2023-05-10T06:18:29;100417.66;;;14.23;100.00
2875;BME280;1445;52.600;13.328;2023-05-10T06:20:55;100415.69;;;14.23;100.00
2875;BME280;1445;52.600;13.328;2023-05-10T06:23:21;100408.13;;;14.32;100.00
2875;BME280;1445;52.600;13.328;2023-05-10T06:25:47;100406.91;;;14.42;100.00
2875;BME280;1445;52.600;13.328;2023-05-10T06:28:12;100414.44;;;14.50;100.00
2875;BME280;1445;52.600;13.328;2023-05-10T06:30:38;100413.41;;;14.55;100.00
2875;BME280;1445;52.600;13.328;2023-05-10T06:33:03;100412.38;;;14.60;100.00
2875;BME280;1445;52.600;13.328;2023-05-10T06:35:29;100403.66;;;14.70;100.00
2875;BME280;1445;52.600;13.328;2023-05-10T06:37:54;100407.38;;;14.74;100.00
2875;BME280;1445;52.600;13.328;2023-05-10T06:40:20;100409.50;;;14.77;100.00
2875;BME280;1445;52.600;13.328;2023-05-10T06:42:47;100410.78;;;14.79;100.00
2875;BME280;1445;52.600;13.328;2023-05-10T06:45:13;100400.16;;;14.82;100.00
2875;BME280;1445;52.600;13.328;2023-05-10T06:47:39;100401.84;;;14.95;100.00
2875;BME280;1445;52.600;13.328;2023-05-10T06:50:06;100406.84;;;15.01;100.00
2875;BME280;1445;52.600;13.328;2023-05-10T06:52:32;100415.56;;;15.12;100.00
2875;BME280;1445;52.600;13.328;2023-05-10T06:54:57;100405.88;;;15.18;100.00
2875;BME280;1445;52.600;13.328;2023-05-10T06:57:23;100407.97;;;15.21;100.00
2875;BME280;1445;52.600;13.328;2023-05-10T06:59:49;100415.81;;;15.19;100.00
2875;BME280;1445;52.600;13.328;2023-05-10T07:02:15;100419.63;;;15.15;100.00
2875;BME280;1445;52.600;13.328;2023-05-10T07:04:40;100409.00;;;15.17;100.00
2875;BME280;1445;52.600;13.328;2023-05-10T07:07:05;100410.88;;;15.25;100.00
2875;BME280;1445;52.600;13.328;2023-05-10T07:09:31;100409.66;;;15.35;100.00
2875;BME280;1445;52.600;13.328;2023-05-10T07:11:56;100399.06;;;15.49;100.00
2875;BME280;1445;52.600;13.328;2023-05-10T07:14:22;100398.38;;;15.52;100.00
2875;BME280;1445;52.600;13.328;2023-05-10T07:16:48;100392.81;;;15.64;100.00
2875;BME280;1445;52.600;13.328;2023-05-10T07:19:13;100404.91;;;15.68;100.00
2875;BME280;1445;52.600;13.328;2023-05-10T07:21:39;100397.53;;;15.72;100.00
2875;BME280;1445;52.600;13.328;2023-05-10T07:24:07;100394.03;;;15.75;100.00
2875;BME280;1445;52.600;13.328;2023-05-10T07:26:33;100393.00;;;15.80;100.00
2875;BME280;1445;52.600;13.328;2023-05-10T07:28:58;100393.69;;;15.89;100.00
2875;BME280;1445;52.600;13.328;2023-05-10T07:31:24;100398.69;;;15.96;100.00
2875;BME280;1445;52.600;13.328;2023-05-10T07:33:49;100396.94;;;16.04;100.00
2875;BME280;1445;52.600;13.328;2023-05-10T07:36:14;100400.69;;;16.08;100.00
2875;BME280;1445;52.600;13.328;2023-05-10T07:38:40;100402.50;;;16.04;99.58
2875;BME280;1445;52.600;13.328;2023-05-10T07:41:05;100404.47;;;16.03;100.00
2875;BME280;1445;52.600;13.328;2023-05-10T07:43:31;100400.09;;;16.27;100.00
2875;BME280;1445;52.600;13.328;2023-05-10T07:45:56;100401.72;;;16.40;98.81
2875;BME280;1445;52.600;13.328;2023-05-10T07:48:22;100403.22;;;16.37;97.51
2875;BME280;1445;52.600;13.328;2023-05-10T07:50:48;100394.16;;;16.40;96.95
2875;BME280;1445;52.600;13.328;2023-05-10T07:53:13;100399.50;;;16.33;96.56
2875;BME280;1445;52.600;13.328;2023-05-10T07:55:39;100383.72;;;16.37;95.59
2875;BME280;1445;52.600;13.328;2023-05-10T07:58:05;100386.00;;;16.60;97.63
2875;BME280;1445;52.600;13.328;2023-05-10T08:00:30;100386.72;;;16.81;95.63
2875;BME280;1445;52.600;13.328;2023-05-10T08:02:55;100387.94;;;16.84;92.38
2875;BME280;1445;52.600;13.328;2023-05-10T08:05:21;100390.94;;;16.91;92.22
2875;BME280;1445;52.600;13.328;2023-05-10T08:07:46;100385.69;;;17.02;91.95
2875;BME280;1445;52.600;13.328;2023-05-10T08:10:12;100399.16;;;17.00;89.61
2875;BME280;1445;52.600;13.328;2023-05-10T08:12:38;100394.63;;;17.07;88.03
2875;BME280;1445;52.600;13.328;2023-05-10T08:15:04;100389.34;;;17.18;90.13
2875;BME280;1445;52.600;13.328;2023-05-10T08:17:29;100386.84;;;17.29;87.88
2875;BME280;1445;52.600;13.328;2023-05-10T08:19:55;100386.53;;;17.46;87.55
2875;BME280;1445;52.600;13.328;2023-05-10T08:22:20;100384.84;;;17.57;85.43
2875;BME280;1445;52.600;13.328;2023-05-10T08:24:46;100385.50;;;17.82;86.51
2875;BME280;1445;52.600;13.328;2023-05-10T08:27:11;100391.91;;;17.99;83.72
2875;BME280;1445;52.600;13.328;2023-05-10T08:29:37;100386.13;;;18.07;82.60
2875;BME280;1445;52.600;13.328;2023-05-10T08:32:03;100394.88;;;18.22;79.74
2875;BME280;1445;52.600;13.328;2023-05-10T08:34:28;100389.28;;;18.22;75.19
2875;BME280;1445;52.600;13.328;2023-05-10T08:36:56;100397.75;;;18.25;74.37
2875;BME280;1445;52.600;13.328;2023-05-10T08:39:21;100393.69;;;18.07;73.29
2875;BME280;1445;52.600;13.328;2023-05-10T08:41:51;100397.75;;;18.09;74.64
2875;BME280;1445;52.600;13.328;2023-05-10T08:44:19;100383.97;;;18.32;74.21
2875;BME280;1445;52.600;13.328;2023-05-10T08:46:46;100396.34;;;18.51;76.23
2875;BME280;1445;52.600;13.328;2023-05-10T08:49:13;100388.47;;;18.56;68.04
2875;BME280;1445;52.600;13.328;2023-05-10T08:51:44;100386.22;;;18.62;67.97
2875;BME280;1445;52.600;13.328;2023-05-10T08:54:12;100373.13;;;18.66;65.63
2875;BME280;1445;52.600;13.328;2023-05-10T08:56:38;100389.81;;;18.63;66.02
2875;BME280;1445;52.600;13.328;2023-05-10T08:59:04;100393.31;;;18.75;64.89
2875;BME280;1445;52.600;13.328;2023-05-10T09:01:31;100400.97;;;18.98;64.44
2875;BME280;1445;52.600;13.328;2023-05-10T09:03:57;100397.84;;;18.99;61.90
2875;BME280;1445;52.600;13.328;2023-05-10T09:06:23;100399.50;;;19.04;62.25
2875;BME280;1445;52.600;13.328;2023-05-10T09:08:49;100386.22;;;19.17;60.90
2875;BME280;1445;52.600;13.328;2023-05-10T09:11:16;100382.97;;;19.34;60.47
2875;BME280;1445;52.600;13.328;2023-05-10T09:13:42;100385.97;;;19.45;60.00
2875;BME280;1445;52.600;13.328;2023-05-10T09:16:09;100397.28;;;19.52;57.55
2875;BME280;1445;52.600;13.328;2023-05-10T09:18:34;100387.38;;;19.35;58.43
2875;BME280;1445;52.600;13.328;2023-05-10T09:21:00;100394.84;;;19.50;56.81
2875;BME280;1445;52.600;13.328;2023-05-10T09:23:25;100404.91;;;19.74;57.32
2875;BME280;1445;52.600;13.328;2023-05-10T09:26:05;100394.56;;;19.78;55.19
2875;BME280;1445;52.600;13.328;2023-05-10T09:28:34;100404.06;;;20.20;55.44
2875;BME280;1445;52.600;13.328;2023-05-10T09:30:59;100393.09;;;20.34;51.90
2875;BME280;1445;52.600;13.328;2023-05-10T09:33:25;100408.06;;;20.19;51.75
2875;BME280;1445;52.600;13.328;2023-05-10T09:35:51;100401.38;;;20.27;51.77
2875;BME280;1445;52.600;13.328;2023-05-10T09:38:17;100403.97;;;20.39;51.76
2875;BME280;1445;52.600;13.328;2023-05-10T09:40:51;100407.53;;;20.63;50.67
2875;BME280;1445;52.600;13.328;2023-05-10T09:43:19;100399.25;;;21.00;50.50
2875;BME280;1445;52.600;13.328;2023-05-10T09:45:48;100398.81;;;21.32;48.70
2875;BME280;1445;52.600;13.328;2023-05-10T09:48:15;100408.81;;;21.29;47.42
2875;BME280;1445;52.600;13.328;2023-05-10T09:50:41;100401.97;;;21.60;47.22
2875;BME280;1445;52.600;13.328;2023-05-10T09:53:07;100386.00;;;22.12;46.60
2875;BME280;1445;52.600;13.328;2023-05-10T09:58:01;100395.38;;;22.27;43.01
2875;BME280;1445;52.600;13.328;2023-05-10T10:00:28;100400.28;;;21.97;42.97
2875;BME280;1445;52.600;13.328;2023-05-10T10:02:58;100405.25;;;22.14;42.73
2875;BME280;1445;52.600;13.328;2023-05-10T10:05:31;100403.38;;;22.25;42.12
2875;BME280;1445;52.600;13.328;2023-05-10T10:07:58;100397.31;;;22.20;42.21
2875;BME280;1445;52.600;13.328;2023-05-10T10:10:27;100405.66;;;22.64;42.12
2875;BME280;1445;52.600;13.328;2023-05-10T10:12:53;100397.66;;;22.73;41.89
2875;BME280;1445;52.600;13.328;2023-05-10T10:15:23;100397.25;;;22.68;41.43
2875;BME280;1445;52.600;13.328;2023-05-10T10:17:50;100403.09;;;23.07;40.90
2875;BME280;1445;52.600;13.328;2023-05-10T10:20:16;100399.44;;;22.99;39.83
2875;BME280;1445;52.600;13.328;2023-05-10T10:22:42;100407.41;;;22.90;40.76
2875;BME280;1445;52.600;13.328;2023-05-10T10:25:10;100404.94;;;22.81;40.93
2875;BME280;1445;52.600;13.328;2023-05-10T10:33:28;100380.53;;;22.93;40.34
2875;BME280;1445;52.600;13.328;2023-05-10T10:35:58;100393.16;;;23.34;38.61
2875;BME280;1445;52.600;13.328;2023-05-10T10:38:25;100390.38;;;23.52;38.68
2875;BME280;1445;52.600;13.328;2023-05-10T10:41:09;100387.13;;;23.47;39.68
2875;BME280;1445;52.600;13.328;2023-05-10T10:43:35;100381.59;;;24.15;38.51
2875;BME280;1445;52.600;13.328;2023-05-10T10:46:12;100390.88;;;24.40;37.09
2875;BME280;1445;52.600;13.328;2023-05-10T10:48:39;100392.47;;;24.16;37.07
2875;BME280;1445;52.600;13.328;2023-05-10T10:51:04;100392.06;;;24.54;37.16
2875;BME280;1445;52.600;13.328;2023-05-10T10:53:30;100390.66;;;25.15;35.52
2875;BME280;1445;52.600;13.328;2023-05-10T10:56:09;100383.16;;;26.16;35.24
2875;BME280;1445;52.600;13.328;2023-05-10T10:58:36;100389.38;;;25.34;34.25
2875;BME280;1445;52.600;13.328;2023-05-10T11:01:10;100387.34;;;25.35;35.22
2875;BME280;1445;52.600;13.328;2023-05-10T11:03:36;100388.41;;;25.55;34.82
2875;BME280;1445;52.600;13.328;2023-05-10T11:06:02;100412.53;;;25.70;34.04
2875;BME280;1445;52.600;13.328;2023-05-10T11:08:32;100388.22;;;25.25;33.86
2875;BME280;1445;52.600;13.328;2023-05-10T11:16:17;100375.50;;;26.58;31.81
2875;BME280;1445;52.600;13.328;2023-05-10T11:21:25;100379.94;;;26.59;32.25
2875;BME280;1445;52.600;13.328;2023-05-10T11:23:53;100385.50;;;27.01;31.20
2875;BME280;1445;52.600;13.328;2023-05-10T11:26:40;100370.75;;;26.48;31.74
2875;BME280;1445;52.600;13.328;2023-05-10T11:29:06;100375.00;;;27.63;30.64
2875;BME280;1445;52.600;13.328;2023-05-10T11:31:31;100374.19;;;27.35;30.36
2875;BME280;1445;52.600;13.328;2023-05-10T11:33:58;100371.41;;;28.33;30.35
2875;BME280;1445;52.600;13.328;2023-05-10T11:36:27;100367.50;;;28.90;29.63
2875;BME280;1445;52.600;13.328;2023-05-10T11:38:53;100386.16;;;28.24;28.77
2875;BME280;1445;52.600;13.328;2023-05-10T11:41:19;100380.03;;;26.86;31.01
2875;BME280;1445;52.600;13.328;2023-05-10T11:43:53;100385.09;;;27.91;29.06
2875;BME280;1445;52.600;13.328;2023-05-10T11:46:21;100372.28;;;27.55;30.10
2875;BME280;1445;52.600;13.328;2023-05-10T11:48:49;100367.53;;;27.99;29.31
2875;BME280;1445;52.600;13.328;2023-05-10T11:51:23;100380.25;;;29.21;28.52
2875;BME280;1445;52.600;13.328;2023-05-10T11:53:54;100374.28;;;28.76;28.14
2875;BME280;1445;52.600;13.328;2023-05-10T11:56:20;100377.84;;;28.80;28.54
2875;BME280;1445;52.600;13.328;2023-05-10T11:58:52;100368.78;;;28.85;28.56
2875;BME280;1445;52.600;13.328;2023-05-10T12:01:18;100374.53;;;28.82;28.09
2875;BME280;1445;52.600;13.328;2023-05-10T12:03:43;100370.97;;;28.77;28.35
2875;BME280;1445;52.600;13.328;2023-05-10T12:06:09;100371.41;;;29.72;26.74
2875;BME280;1445;52.600;13.328;2023-05-10T12:08:35;100373.25;;;29.26;27.70
2875;BME280;1445;52.600;13.328;2023-05-10T12:11:07;100386.03;;;28.54;27.93
2875;BME280;1445;52.600;13.328;2023-05-10T12:13:40;100386.94;;;29.11;27.34
2875;BME280;1445;52.600;13.328;2023-05-10T12:16:17;100367.84;;;28.92;27.47
2875;BME280;1445;52.600;13.328;2023-05-10T12:18:43;100364.56;;;30.64;26.57
2875;BME280;1445;52.600;13.328;2023-05-10T12:21:10;100377.69;;;30.74;25.81
2875;BME280;1445;52.600;13.328;2023-05-10T12:23:37;100373.47;;;30.66;26.02
2875;BME280;1445;52.600;13.328;2023-05-10T12:26:03;100390.00;;;29.57;25.98
2875;BME280;1445;52.600;13.328;2023-05-10T12:28:33;100379.75;;;29.95;26.64
2875;BME280;1445;52.600;13.328;2023-05-10T12:31:02;100371.50;;;30.92;25.32
2875;BME280;1445;52.600;13.328;2023-05-10T12:33:38;100376.78;;;31.99;23.92
2875;BME280;1445;52.600;13.328;2023-05-10T12:36:05;100372.66;;;31.75;24.15
2875;BME280;1445;52.600;13.328;2023-05-10T12:38:39;100376.38;;;28.72;26.50
2875;BME280;1445;52.600;13.328;2023-05-10T12:41:09;100384.72;;;29.75;26.65
2875;BME280;1445;52.600;13.328;2023-05-10T12:43:36;100388.53;;;29.32;25.95
2875;BME280;1445;52.600;13.328;2023-05-10T12:46:06;100388.63;;;29.81;24.83
2875;BME280;1445;52.600;13.328;2023-05-10T12:48:31;100392.50;;;30.53;24.52
2875;BME280;1445;52.600;13.328;2023-05-10T12:50:58;100384.34;;;30.55;24.60
2875;BME280;1445;52.600;13.328;2023-05-10T12:53:24;100369.38;;;31.51;24.21
2875;BME280;1445;52.600;13.328;2023-05-10T12:55:49;100375.16;;;31.85;23.90
2875;BME280;1445;52.600;13.328;2023-05-10T12:58:15;100390.16;;;30.18;24.83
2875;BME280;1445;52.600;13.328;2023-05-10T13:00:40;100394.69;;;30.78;24.18
2875;BME280;1445;52.600;13.328;2023-05-10T13:03:05;100382.66;;;31.28;23.79
2875;BME280;1445;52.600;13.328;2023-05-10T13:05:32;100377.69;;;31.96;23.11
2875;BME280;1445;52.600;13.328;2023-05-10T13:07:58;100377.34;;;31.56;23.52
2875;BME280;1445;52.600;13.328;2023-05-10T13:10:23;100386.22;;;30.74;24.60
2875;BME280;1445;52.600;13.328;2023-05-10T13:12:50;100380.44;;;29.31;26.92
2875;BME280;1445;52.600;13.328;2023-05-10T13:15:15;100403.91;;;28.51;27.10
2875;BME280;1445;52.600;13.328;2023-05-10T13:17:40;100378.66;;;27.87;29.23
2875;BME280;1445;52.600;13.328;2023-05-10T13:20:08;100392.19;;;28.26;28.51
2875;BME280;1445;52.600;13.328;2023-05-10T13:22:34;100382.63;;;29.23;27.38
2875;BME280;1445;52.600;13.328;2023-05-10T13:25:00;100386.34;;;30.25;24.93
2875;BME280;1445;52.600;13.328;2023-05-10T13:27:26;100360.28;;;31.01;24.37
2875;BME280;1445;52.600;13.328;2023-05-10T13:29:51;100366.63;;;31.98;23.13